sensor_id;sensor_type;location;lat;lon;timestamp;P1;durP1;ratioP1;P2;durP2;ratioP2
70228;SDS011;57617;51.988;5.854;2023-08-30T00:00:14;18.48;;;8.75;;
70228;SDS011;57617;51.988;5.854;2023-08-30T00:02:40;11.60;;;7.47;;
70228;SDS011;57617;51.988;5.854;2023-08-30T00:05:05;13.93;;;8.60;;
70228;SDS011;57617;51.988;5.854;2023-08-30T00:07:30;12.32;;;7.95;;
70228;SDS011;57617;51.988;5.854;2023-08-30T00:09:56;14.20;;;8.30;;
70228;SDS011;57617;51.988;5.854;2023-08-30T00:12:22;13.60;;;8.35;;
70228;SDS011;57617;51.988;5.854;2023-08-30T00:14:48;13.55;;;8.38;;
70228;SDS011;57617;51.988;5.854;2023-08-30T00:17:13;16.10;;;7.93;;
70228;SDS011;57617;51.988;5.854;2023-08-30T00:19:39;14.52;;;8.15;;
70228;SDS011;57617;51.988;5.854;2023-08-30T00:22:05;16.27;;;7.90;;
70228;SDS011;57617;51.988;5.854;2023-08-30T00:24:32;11.40;;;7.57;;
70228;SDS011;57617;51.988;5.854;2023-08-30T00:26:58;13.02;;;7.80;;
70228;SDS011;57617;51.988;5.854;2023-08-30T00:29:23;14.45;;;7.95;;
70228;SDS011;57617;51.988;5.854;2023-08-30T00:31:49;14.60;;;7.97;;
70228;SDS011;57617;51.988;5.854;2023-08-30T00:34:14;13.15;;;8.25;;
70228;SDS011;57617;51.988;5.854;2023-08-30T00:36:39;11.63;;;7.93;;
70228;SDS011;57617;51.988;5.854;2023-08-30T00:39:05;14.65;;;8.20;;
70228;SDS011;57617;51.988;5.854;2023-08-30T00:41:30;12.48;;;8.02;;
70228;SDS011;57617;51.988;5.854;2023-08-30T00:43:55;16.63;;;8.43;;
70228;SDS011;57617;51.988;5.854;2023-08-30T00:46:20;12.63;;;8.18;;
70228;SDS011;57617;51.988;5.854;2023-08-30T00:48:47;14.90;;;8.30;;
70228;SDS011;57617;51.988;5.854;2023-08-30T00:51:12;13.52;;;8.10;;
70228;SDS011;57617;51.988;5.854;2023-08-30T00:53:38;13.35;;;8.40;;
70228;SDS011;57617;51.988;5.854;2023-08-30T00:56:04;14.15;;;8.35;;
70228;SDS011;57617;51.988;5.854;2023-08-30T00:58:29;13.10;;;8.35;;
70228;SDS011;57617;51.988;5.854;2023-08-30T01:00:55;16.58;;;8.43;;
70228;SDS011;57617;51.988;5.854;2023-08-30T01:03:21;13.63;;;8.00;;
70228;SDS011;57617;51.988;5.854;2023-08-30T01:05:47;15.45;;;8.55;;
70228;SDS011;57617;51.988;5.854;2023-08-30T01:08:12;17.58;;;8.85;;
70228;SDS011;57617;51.988;5.854;2023-08-30T01:10:52;13.85;;;8.60;;
70228;SDS011;57617;51.988;5.854;2023-08-30T01:13:25;13.10;;;7.80;;
70228;SDS011;57617;51.988;5.854;2023-08-30T01:15:55;17.05;;;8.45;;
70228;SDS011;57617;51.988;5.854;2023-08-30T01:18:23;15.30;;;8.27;;
70228;SDS011;57617;51.988;5.854;2023-08-30T01:20:53;13.95;;;8.48;;
70228;SDS011;57617;51.988;5.854;2023-08-30T01:23:24;14.48;;;8.30;;
70228;SDS011;57617;51.988;5.854;2023-08-30T01:28:28;14.50;;;8.43;;
70228;SDS011;57617;51.988;5.854;2023-08-30T01:30:56;14.73;;;8.07;;
70228;SDS011;57617;51.988;5.854;2023-08-30T01:33:23;13.90;;;8.02;;
70228;SDS011;57617;51.988;5.854;2023-08-30T01:35:52;14.27;;;8.07;;
70228;SDS011;57617;51.988;5.854;2023-08-30T01:38:19;13.82;;;8.23;;
70228;SDS011;57617;51.988;5.854;2023-08-30T01:40:45;13.43;;;8.20;;
70228;SDS011;57617;51.988;5.854;2023-08-30T01:43:10;15.18;;;8.85;;
70228;SDS011;57617;51.988;5.854;2023-08-30T01:45:38;14.90;;;8.93;;
70228;SDS011;57617;51.988;5.854;2023-08-30T01:48:05;15.85;;;8.60;;
70228;SDS011;57617;51.988;5.854;2023-08-30T01:50:34;13.35;;;8.25;;
70228;SDS011;57617;51.988;5.854;2023-08-30T01:52:59;13.65;;;8.45;;
70228;SDS011;57617;51.988;5.854;2023-08-30T01:55:26;15.43;;;8.30;;
70228;SDS011;57617;51.988;5.854;2023-08-30T01:57:53;13.25;;;8.00;;
70228;SDS011;57617;51.988;5.854;2023-08-30T02:00:18;14.18;;;8.30;;
70228;SDS011;57617;51.988;5.854;2023-08-30T02:02:44;16.73;;;8.45;;
70228;SDS011;57617;51.988;5.854;2023-08-30T02:05:09;16.20;;;8.50;;
70228;SDS011;57617;51.988;5.854;2023-08-30T02:07:40;14.32;;;8.32;;
70228;SDS011;57617;51.988;5.854;2023-08-30T02:10:31;16.00;;;8.35;;
70228;SDS011;57617;51.988;5.854;2023-08-30T02:13:00;15.40;;;8.40;;
70228;SDS011;57617;51.988;5.854;2023-08-30T02:15:28;12.85;;;8.35;;
70228;SDS011;57617;51.988;5.854;2023-08-30T02:17:56;15.57;;;8.07;;
70228;SDS011;57617;51.988;5.854;2023-08-30T02:20:22;13.60;;;8.02;;
70228;SDS011;57617;51.988;5.854;2023-08-30T02:22:48;16.17;;;8.18;;
70228;SDS011;57617;51.988;5.854;2023-08-30T02:25:13;15.02;;;8.38;;
70228;SDS011;57617;51.988;5.854;2023-08-30T02:27:38;17.42;;;8.52;;
70228;SDS011;57617;51.988;5.854;2023-08-30T02:30:04;16.17;;;7.93;;
70228;SDS011;57617;51.988;5.854;2023-08-30T02:32:30;15.98;;;7.88;;
70228;SDS011;57617;51.988;5.854;2023-08-30T02:34:56;14.65;;;8.45;;
70228;SDS011;57617;51.988;5.854;2023-08-30T02:37:21;13.80;;;8.50;;
70228;SDS011;57617;51.988;5.854;2023-08-30T02:39:47;19.05;;;8.32;;
70228;SDS011;57617;51.988;5.854;2023-08-30T02:42:12;13.75;;;8.40;;
70228;SDS011;57617;51.988;5.854;2023-08-30T02:44:38;17.92;;;8.52;;
70228;SDS011;57617;51.988;5.854;2023-08-30T02:47:03;13.75;;;7.85;;
70228;SDS011;57617;51.988;5.854;2023-08-30T02:49:29;18.58;;;9.00;;
70228;SDS011;57617;51.988;5.854;2023-08-30T02:51:54;15.48;;;8.70;;
70228;SDS011;57617;51.988;5.854;2023-08-30T02:54:20;19.35;;;9.32;;
70228;SDS011;57617;51.988;5.854;2023-08-30T02:56:45;15.15;;;8.52;;
70228;SDS011;57617;51.988;5.854;2023-08-30T02:59:11;18.50;;;8.57;;
70228;SDS011;57617;51.988;5.854;2023-08-30T03:01:37;14.35;;;8.60;;
70228;SDS011;57617;51.988;5.854;2023-08-30T03:04:06;17.10;;;8.70;;
70228;SDS011;57617;51.988;5.854;2023-08-30T03:06:32;15.18;;;9.10;;
70228;SDS011;57617;51.988;5.854;2023-08-30T03:08:57;15.80;;;9.10;;
70228;SDS011;57617;51.988;5.854;2023-08-30T03:11:23;15.05;;;9.10;;
70228;SDS011;57617;51.988;5.854;2023-08-30T03:13:48;16.85;;;8.70;;
70228;SDS011;57617;51.988;5.854;2023-08-30T03:16:14;15.93;;;9.00;;
70228;SDS011;57617;51.988;5.854;2023-08-30T03:18:41;14.63;;;8.60;;
70228;SDS011;57617;51.988;5.854;2023-08-30T03:21:07;16.05;;;8.68;;
70228;SDS011;57617;51.988;5.854;2023-08-30T03:23:33;16.00;;;9.25;;
70228;SDS011;57617;51.988;5.854;2023-08-30T03:26:06;16.60;;;9.10;;
70228;SDS011;57617;51.988;5.854;2023-08-30T03:28:33;15.50;;;9.02;;
70228;SDS011;57617;51.988;5.854;2023-08-30T03:30:58;17.97;;;10.40;;
70228;SDS011;57617;51.988;5.854;2023-08-30T03:33:24;17.80;;;9.80;;
70228;SDS011;57617;51.988;5.854;2023-08-30T03:35:49;15.43;;;8.35;;
70228;SDS011;57617;51.988;5.854;2023-08-30T03:38:14;17.67;;;9.48;;
70228;SDS011;57617;51.988;5.854;2023-08-30T03:40:39;17.60;;;9.07;;
70228;SDS011;57617;51.988;5.854;2023-08-30T03:43:05;18.65;;;9.68;;
70228;SDS011;57617;51.988;5.854;2023-08-30T03:45:34;17.27;;;9.20;;
70228;SDS011;57617;51.988;5.854;2023-08-30T03:48:00;16.02;;;9.15;;
70228;SDS011;57617;51.988;5.854;2023-08-30T03:50:26;16.15;;;8.90;;
70228;SDS011;57617;51.988;5.854;2023-08-30T03:52:51;18.00;;;9.43;;
70228;SDS011;57617;51.988;5.854;2023-08-30T03:55:16;15.93;;;9.45;;
70228;SDS011;57617;51.988;5.854;2023-08-30T03:57:41;16.05;;;9.70;;
70228;SDS011;57617;51.988;5.854;2023-08-30T04:00:07;15.38;;;9.60;;
70228;SDS011;57617;51.988;5.854;2023-08-30T04:02:33;16.08;;;9.57;;
70228;SDS011;57617;51.988;5.854;2023-08-30T04:04:58;17.65;;;9.68;;
70228;SDS011;57617;51.988;5.854;2023-08-30T04:07:23;16.00;;;9.30;;
70228;SDS011;57617;51.988;5.854;2023-08-30T04:09:49;17.25;;;9.45;;
70228;SDS011;57617;51.988;5.854;2023-08-30T04:12:15;16.08;;;9.20;;
70228;SDS011;57617;51.988;5.854;2023-08-30T04:14:40;16.92;;;9.85;;
70228;SDS011;57617;51.988;5.854;2023-08-30T04:17:06;17.45;;;9.57;;
70228;SDS011;57617;51.988;5.854;2023-08-30T04:19:31;18.02;;;9.50;;
70228;SDS011;57617;51.988;5.854;2023-08-30T04:21:56;18.20;;;9.65;;
70228;SDS011;57617;51.988;5.854;2023-08-30T04:24:21;20.02;;;10.25;;
70228;SDS011;57617;51.988;5.854;2023-08-30T04:26:47;17.67;;;10.13;;
70228;SDS011;57617;51.988;5.854;2023-08-30T04:29:16;18.77;;;9.95;;
70228;SDS011;57617;51.988;5.854;2023-08-30T04:31:43;17.92;;;9.50;;
70228;SDS011;57617;51.988;5.854;2023-08-30T04:34:08;18.35;;;10.20;;
70228;SDS011;57617;51.988;5.854;2023-08-30T04:36:34;18.13;;;10.25;;
70228;SDS011;57617;51.988;5.854;2023-08-30T04:38:59;19.08;;;9.80;;
70228;SDS011;57617;51.988;5.854;2023-08-30T04:41:24;19.90;;;10.35;;
70228;SDS011;57617;51.988;5.854;2023-08-30T04:43:50;19.65;;;9.65;;
70228;SDS011;57617;51.988;5.854;2023-08-30T04:46:15;18.83;;;10.10;;
70228;SDS011;57617;51.988;5.854;2023-08-30T04:48:40;17.65;;;9.43;;
70228;SDS011;57617;51.988;5.854;2023-08-30T04:51:05;17.17;;;9.93;;
70228;SDS011;57617;51.988;5.854;2023-08-30T04:53:31;17.92;;;10.10;;
70228;SDS011;57617;51.988;5.854;2023-08-30T04:55:56;18.50;;;9.77;;
70228;SDS011;57617;51.988;5.854;2023-08-30T04:58:21;18.40;;;9.90;;
70228;SDS011;57617;51.988;5.854;2023-08-30T05:00:47;20.90;;;10.25;;
70228;SDS011;57617;51.988;5.854;2023-08-30T05:03:12;17.77;;;9.30;;
70228;SDS011;57617;51.988;5.854;2023-08-30T05:05:38;19.27;;;10.13;;
70228;SDS011;57617;51.988;5.854;2023-08-30T05:08:03;21.35;;;10.23;;
70228;SDS011;57617;51.988;5.854;2023-08-30T05:10:29;20.35;;;9.85;;
70228;SDS011;57617;51.988;5.854;2023-08-30T05:12:54;18.02;;;9.98;;
70228;SDS011;57617;51.988;5.854;2023-08-30T05:15:20;20.02;;;10.20;;
70228;SDS011;57617;51.988;5.854;2023-08-30T05:17:45;20.42;;;10.10;;
70228;SDS011;57617;51.988;5.854;2023-08-30T05:20:11;20.27;;;10.20;;
70228;SDS011;57617;51.988;5.854;2023-08-30T05:22:37;20.92;;;10.07;;
70228;SDS011;57617;51.988;5.854;2023-08-30T05:25:02;23.42;;;11.02;;
70228;SDS011;57617;51.988;5.854;2023-08-30T05:27:27;19.77;;;10.25;;
70228;SDS011;57617;51.988;5.854;2023-08-30T05:29:53;19.17;;;10.60;;
70228;SDS011;57617;51.988;5.854;2023-08-30T05:32:20;17.75;;;9.95;;
70228;SDS011;57617;51.988;5.854;2023-08-30T05:34:46;20.70;;;10.25;;
70228;SDS011;57617;51.988;5.854;2023-08-30T05:37:12;17.63;;;10.00;;
70228;SDS011;57617;51.988;5.854;2023-08-30T05:39:37;18.15;;;9.65;;
70228;SDS011;57617;51.988;5.854;2023-08-30T05:42:02;21.42;;;10.48;;
70228;SDS011;57617;51.988;5.854;2023-08-30T05:44:28;18.52;;;9.70;;
70228;SDS011;57617;51.988;5.854;2023-08-30T05:46:53;17.27;;;10.02;;
70228;SDS011;57617;51.988;5.854;2023-08-30T05:49:18;16.67;;;9.80;;
70228;SDS011;57617;51.988;5.854;2023-08-30T05:51:44;17.58;;;10.55;;
70228;SDS011;57617;51.988;5.854;2023-08-30T05:54:09;18.55;;;9.85;;
70228;SDS011;57617;51.988;5.854;2023-08-30T05:56:34;18.25;;;9.80;;
70228;SDS011;57617;51.988;5.854;2023-08-30T05:59:00;19.63;;;9.57;;
70228;SDS011;57617;51.988;5.854;2023-08-30T06:01:25;15.77;;;9.27;;
70228;SDS011;57617;51.988;5.854;2023-08-30T06:03:50;21.10;;;9.90;;
70228;SDS011;57617;51.988;5.854;2023-08-30T06:06:16;17.88;;;10.00;;
70228;SDS011;57617;51.988;5.854;2023-08-30T06:08:42;18.40;;;9.70;;
70228;SDS011;57617;51.988;5.854;2023-08-30T06:11:07;18.02;;;10.35;;
70228;SDS011;57617;51.988;5.854;2023-08-30T06:13:33;20.02;;;10.13;;
70228;SDS011;57617;51.988;5.854;2023-08-30T06:15:58;19.20;;;10.18;;
70228;SDS011;57617;51.988;5.854;2023-08-30T06:18:23;23.17;;;10.43;;
70228;SDS011;57617;51.988;5.854;2023-08-30T06:20:49;17.08;;;10.18;;
70228;SDS011;57617;51.988;5.854;2023-08-30T06:23:14;22.85;;;11.00;;
70228;SDS011;57617;51.988;5.854;2023-08-30T06:25:40;23.08;;;11.75;;
70228;SDS011;57617;51.988;5.854;2023-08-30T06:28:06;20.95;;;11.57;;
70228;SDS011;57617;51.988;5.854;2023-08-30T06:30:32;21.05;;;11.70;;
70228;SDS011;57617;51.988;5.854;2023-08-30T06:32:57;19.88;;;11.75;;
70228;SDS011;57617;51.988;5.854;2023-08-30T06:35:23;20.90;;;11.57;;
70228;SDS011;57617;51.988;5.854;2023-08-30T06:37:49;22.77;;;12.13;;
70228;SDS011;57617;51.988;5.854;2023-08-30T06:40:14;21.85;;;11.80;;
70228;SDS011;57617;51.988;5.854;2023-08-30T06:42:39;21.83;;;12.10;;
70228;SDS011;57617;51.988;5.854;2023-08-30T06:45:05;19.10;;;11.70;;
70228;SDS011;57617;51.988;5.854;2023-08-30T06:47:31;20.10;;;11.50;;
70228;SDS011;57617;51.988;5.854;2023-08-30T06:49:56;21.98;;;10.77;;
70228;SDS011;57617;51.988;5.854;2023-08-30T06:52:22;22.15;;;12.38;;
70228;SDS011;57617;51.988;5.854;2023-08-30T06:54:47;20.73;;;12.18;;
70228;SDS011;57617;51.988;5.854;2023-08-30T06:57:12;21.75;;;12.02;;
70228;SDS011;57617;51.988;5.854;2023-08-30T06:59:38;21.17;;;11.90;;
70228;SDS011;57617;51.988;5.854;2023-08-30T07:02:03;21.23;;;12.18;;
70228;SDS011;57617;51.988;5.854;2023-08-30T07:04:29;21.05;;;12.30;;
70228;SDS011;57617;51.988;5.854;2023-08-30T07:06:54;21.52;;;12.82;;
70228;SDS011;57617;51.988;5.854;2023-08-30T07:09:20;23.58;;;12.93;;
70228;SDS011;57617;51.988;5.854;2023-08-30T07:11:47;21.00;;;12.60;;
70228;SDS011;57617;51.988;5.854;2023-08-30T07:14:12;23.33;;;12.65;;
70228;SDS011;57617;51.988;5.854;2023-08-30T07:16:39;19.52;;;12.40;;
70228;SDS011;57617;51.988;5.854;2023-08-30T07:19:05;21.85;;;12.68;;
70228;SDS011;57617;51.988;5.854;2023-08-30T07:21:30;22.50;;;13.35;;
70228;SDS011;57617;51.988;5.854;2023-08-30T07:23:56;24.08;;;13.00;;
70228;SDS011;57617;51.988;5.854;2023-08-30T07:26:21;23.08;;;13.48;;
70228;SDS011;57617;51.988;5.854;2023-08-30T07:28:47;24.45;;;13.38;;
70228;SDS011;57617;51.988;5.854;2023-08-30T07:31:12;26.67;;;13.82;;
70228;SDS011;57617;51.988;5.854;2023-08-30T07:33:43;27.95;;;14.15;;
70228;SDS011;57617;51.988;5.854;2023-08-30T07:36:09;22.00;;;13.20;;
70228;SDS011;57617;51.988;5.854;2023-08-30T07:38:34;22.85;;;13.00;;
70228;SDS011;57617;51.988;5.854;2023-08-30T07:41:00;24.48;;;13.43;;
70228;SDS011;57617;51.988;5.854;2023-08-30T07:43:25;23.35;;;12.63;;
70228;SDS011;57617;51.988;5.854;2023-08-30T07:45:51;24.73;;;12.70;;
70228;SDS011;57617;51.988;5.854;2023-08-30T07:48:16;26.63;;;13.60;;
70228;SDS011;57617;51.988;5.854;2023-08-30T07:50:41;22.40;;;11.80;;
70228;SDS011;57617;51.988;5.854;2023-08-30T07:53:07;21.65;;;12.13;;
70228;SDS011;57617;51.988;5.854;2023-08-30T07:55:32;26.00;;;12.32;;
70228;SDS011;57617;51.988;5.854;2023-08-30T07:57:57;23.90;;;12.00;;
70228;SDS011;57617;51.988;5.854;2023-08-30T08:00:22;25.02;;;11.68;;
70228;SDS011;57617;51.988;5.854;2023-08-30T08:02:48;27.45;;;12.15;;
70228;SDS011;57617;51.988;5.854;2023-08-30T08:05:13;24.98;;;12.13;;
70228;SDS011;57617;51.988;5.854;2023-08-30T08:07:39;24.73;;;11.70;;
70228;SDS011;57617;51.988;5.854;2023-08-30T08:10:08;21.88;;;11.45;;
70228;SDS011;57617;51.988;5.854;2023-08-30T08:12:33;24.30;;;11.65;;
70228;SDS011;57617;51.988;5.854;2023-08-30T08:14:59;24.55;;;11.88;;
70228;SDS011;57617;51.988;5.854;2023-08-30T08:17:24;26.55;;;12.10;;
70228;SDS011;57617;51.988;5.854;2023-08-30T08:19:49;29.75;;;13.25;;
70228;SDS011;57617;51.988;5.854;2023-08-30T08:22:15;27.15;;;13.00;;
70228;SDS011;57617;51.988;5.854;2023-08-30T08:24:41;27.80;;;12.73;;
70228;SDS011;57617;51.988;5.854;2023-08-30T08:27:06;21.90;;;11.68;;
70228;SDS011;57617;51.988;5.854;2023-08-30T08:29:31;22.33;;;11.93;;
70228;SDS011;57617;51.988;5.854;2023-08-30T08:31:57;28.27;;;11.55;;
70228;SDS011;57617;51.988;5.854;2023-08-30T08:34:22;24.85;;;11.27;;
70228;SDS011;57617;51.988;5.854;2023-08-30T08:36:47;20.35;;;10.98;;
70228;SDS011;57617;51.988;5.854;2023-08-30T08:39:13;21.95;;;10.10;;
70228;SDS011;57617;51.988;5.854;2023-08-30T08:44:09;25.02;;;10.70;;
70228;SDS011;57617;51.988;5.854;2023-08-30T08:46:36;18.45;;;9.90;;
70228;SDS011;57617;51.988;5.854;2023-08-30T08:49:05;23.00;;;10.82;;
70228;SDS011;57617;51.988;5.854;2023-08-30T08:51:42;23.35;;;11.10;;
70228;SDS011;57617;51.988;5.854;2023-08-30T08:54:08;25.52;;;11.73;;
70228;SDS011;57617;51.988;5.854;2023-08-30T08:56:35;22.40;;;11.73;;
70228;SDS011;57617;51.988;5.854;2023-08-30T08:59:01;25.63;;;12.07;;
70228;SDS011;57617;51.988;5.854;2023-08-30T09:01:27;25.55;;;11.32;;
70228;SDS011;57617;51.988;5.854;2023-08-30T09:03:53;23.30;;;12.07;;
70228;SDS011;57617;51.988;5.854;2023-08-30T09:06:18;25.27;;;13.05;;
70228;SDS011;57617;51.988;5.854;2023-08-30T09:08:44;23.85;;;12.93;;
70228;SDS011;57617;51.988;5.854;2023-08-30T09:11:09;25.27;;;12.90;;
70228;SDS011;57617;51.988;5.854;2023-08-30T09:13:35;29.15;;;13.25;;
70228;SDS011;57617;51.988;5.854;2023-08-30T09:16:00;27.88;;;13.02;;
70228;SDS011;57617;51.988;5.854;2023-08-30T09:18:27;22.80;;;12.13;;
70228;SDS011;57617;51.988;5.854;2023-08-30T09:21:04;25.13;;;12.35;;
70228;SDS011;57617;51.988;5.854;2023-08-30T09:23:33;22.15;;;12.20;;
70228;SDS011;57617;51.988;5.854;2023-08-30T09:25:59;25.13;;;12.95;;
70228;SDS011;57617;51.988;5.854;2023-08-30T09:28:24;23.65;;;12.05;;
70228;SDS011;57617;51.988;5.854;2023-08-30T09:30:50;23.45;;;12.05;;
70228;SDS011;57617;51.988;5.854;2023-08-30T09:33:20;23.50;;;11.98;;
70228;SDS011;57617;51.988;5.854;2023-08-30T09:35:46;19.55;;;11.05;;
70228;SDS011;57617;51.988;5.854;2023-08-30T09:38:18;20.30;;;11.07;;
70228;SDS011;57617;51.988;5.854;2023-08-30T09:40:44;21.85;;;10.80;;
70228;SDS011;57617;51.988;5.854;2023-08-30T09:43:10;19.15;;;10.45;;
70228;SDS011;57617;51.988;5.854;2023-08-30T09:45:36;16.83;;;10.38;;
70228;SDS011;57617;51.988;5.854;2023-08-30T09:48:02;24.50;;;13.07;;
70228;SDS011;57617;51.988;5.854;2023-08-30T09:50:30;19.10;;;10.68;;
70228;SDS011;57617;51.988;5.854;2023-08-30T09:52:59;20.48;;;10.35;;
70228;SDS011;57617;51.988;5.854;2023-08-30T09:55:30;26.40;;;14.23;;
70228;SDS011;57617;51.988;5.854;2023-08-30T09:57:56;19.58;;;11.38;;
70228;SDS011;57617;51.988;5.854;2023-08-30T10:00:22;20.02;;;10.60;;
70228;SDS011;57617;51.988;5.854;2023-08-30T10:02:47;20.60;;;9.85;;
70228;SDS011;57617;51.988;5.854;2023-08-30T10:05:13;18.48;;;10.85;;
70228;SDS011;57617;51.988;5.854;2023-08-30T10:07:39;16.42;;;9.68;;
70228;SDS011;57617;51.988;5.854;2023-08-30T10:10:06;17.52;;;9.75;;
70228;SDS011;57617;51.988;5.854;2023-08-30T10:12:32;21.08;;;10.60;;
70228;SDS011;57617;51.988;5.854;2023-08-30T10:14:58;17.90;;;10.65;;
70228;SDS011;57617;51.988;5.854;2023-08-30T10:17:27;18.20;;;10.05;;
70228;SDS011;57617;51.988;5.854;2023-08-30T10:19:53;21.48;;;10.35;;
70228;SDS011;57617;51.988;5.854;2023-08-30T10:22:20;19.17;;;10.82;;
70228;SDS011;57617;51.988;5.854;2023-08-30T10:24:47;19.80;;;11.30;;
70228;SDS011;57617;51.988;5.854;2023-08-30T10:27:16;19.20;;;10.98;;
70228;SDS011;57617;51.988;5.854;2023-08-30T10:29:42;22.02;;;11.20;;
70228;SDS011;57617;51.988;5.854;2023-08-30T10:32:09;24.08;;;12.07;;
70228;SDS011;57617;51.988;5.854;2023-08-30T10:34:35;22.58;;;11.90;;
70228;SDS011;57617;51.988;5.854;2023-08-30T10:37:11;23.40;;;11.38;;
70228;SDS011;57617;51.988;5.854;2023-08-30T10:39:37;24.45;;;12.57;;
70228;SDS011;57617;51.988;5.854;2023-08-30T10:42:11;22.42;;;12.38;;
70228;SDS011;57617;51.988;5.854;2023-08-30T10:49:47;22.63;;;13.10;;
70228;SDS011;57617;51.988;5.854;2023-08-30T10:52:13;22.83;;;12.82;;
70228;SDS011;57617;51.988;5.854;2023-08-30T10:54:38;24.23;;;13.55;;
70228;SDS011;57617;51.988;5.854;2023-08-30T10:57:04;26.55;;;13.40;;
70228;SDS011;57617;51.988;5.854;2023-08-30T10:59:29;25.23;;;13.65;;
70228;SDS011;57617;51.988;5.854;2023-08-30T11:01:55;26.58;;;14.45;;
70228;SDS011;57617;51.988;5.854;2023-08-30T11:04:23;28.25;;;15.52;;
70228;SDS011;57617;51.988;5.854;2023-08-30T11:06:50;29.00;;;15.48;;
70228;SDS011;57617;51.988;5.854;2023-08-30T11:09:18;26.10;;;15.55;;
70228;SDS011;57617;51.988;5.854;2023-08-30T11:11:46;28.52;;;15.65;;
70228;SDS011;57617;51.988;5.854;2023-08-30T11:14:12;27.95;;;15.25;;
70228;SDS011;57617;51.988;5.854;2023-08-30T11:16:38;29.92;;;15.82;;
70228;SDS011;57617;51.988;5.854;2023-08-30T11:19:04;29.33;;;15.95;;
70228;SDS011;57617;51.988;5.854;2023-08-30T11:21:30;28.02;;;15.73;;
70228;SDS011;57617;51.988;5.854;2023-08-30T11:23:58;27.35;;;14.50;;
70228;SDS011;57617;51.988;5.854;2023-08-30T11:26:23;29.38;;;15.90;;
70228;SDS011;57617;51.988;5.854;2023-08-30T11:28:49;26.08;;;14.80;;
70228;SDS011;57617;51.988;5.854;2023-08-30T11:31:20;28.80;;;15.70;;
70228;SDS011;57617;51.988;5.854;2023-08-30T11:33:56;26.75;;;15.82;;
70228;SDS011;57617;51.988;5.854;2023-08-30T11:36:23;22.13;;;13.85;;
70228;SDS011;57617;51.988;5.854;2023-08-30T11:38:51;21.15;;;12.88;;
70228;SDS011;57617;51.988;5.854;2023-08-30T11:41:17;19.40;;;12.60;;
70228;SDS011;57617;51.988;5.854;2023-08-30T11:43:45;21.30;;;12.15;;
70228;SDS011;57617;51.988;5.854;2023-08-30T11:46:10;16.35;;;10.27;;
70228;SDS011;57617;51.988;5.854;2023-08-30T11:48:37;18.60;;;10.45;;
70228;SDS011;57617;51.988;5.854;2023-08-30T11:51:03;18.70;;;11.50;;
70228;SDS011;57617;51.988;5.854;2023-08-30T11:53:29;14.25;;;9.45;;
70228;SDS011;57617;51.988;5.854;2023-08-30T11:55:55;15.43;;;9.45;;
70228;SDS011;57617;51.988;5.854;2023-08-30T11:58:21;14.98;;;9.52;;
70228;SDS011;57617;51.988;5.854;2023-08-30T12:00:48;13.73;;;8.55;;
70228;SDS011;57617;51.988;5.854;2023-08-30T12:03:16;15.32;;;7.53;;
70228;SDS011;57617;51.988;5.854;2023-08-30T12:05:47;11.82;;;6.90;;
70228;SDS011;57617;51.988;5.854;2023-08-30T12:08:26;11.32;;;6.68;;
70228;SDS011;57617;51.988;5.854;2023-08-30T12:10:53;15.00;;;6.35;;
70228;SDS011;57617;51.988;5.854;2023-08-30T12:13:32;15.35;;;6.65;;
70228;SDS011;57617;51.988;5.854;2023-08-30T12:15:58;10.10;;;6.13;;
70228;SDS011;57617;51.988;5.854;2023-08-30T12:18:26;13.73;;;6.18;;
70228;SDS011;57617;51.988;5.854;2023-08-30T12:20:57;10.20;;;4.97;;
70228;SDS011;57617;51.988;5.854;2023-08-30T12:23:24;11.75;;;4.63;;
70228;SDS011;57617;51.988;5.854;2023-08-30T12:26:00;11.95;;;4.43;;
70228;SDS011;57617;51.988;5.854;2023-08-30T12:28:30;9.05;;;4.65;;
70228;SDS011;57617;51.988;5.854;2023-08-30T12:30:56;9.73;;;4.70;;
70228;SDS011;57617;51.988;5.854;2023-08-30T12:33:22;11.02;;;4.50;;
70228;SDS011;57617;51.988;5.854;2023-08-30T12:35:50;11.55;;;4.70;;
70228;SDS011;57617;51.988;5.854;2023-08-30T12:38:15;13.38;;;5.05;;
70228;SDS011;57617;51.988;5.854;2023-08-30T12:40:44;9.45;;;4.45;;
70228;SDS011;57617;51.988;5.854;2023-08-30T12:43:10;7.47;;;3.97;;
70228;SDS011;57617;51.988;5.854;2023-08-30T12:45:36;10.63;;;4.25;;
70228;SDS011;57617;51.988;5.854;2023-08-30T12:48:02;9.82;;;3.90;;
70228;SDS011;57617;51.988;5.854;2023-08-30T12:50:27;11.70;;;4.30;;
70228;SDS011;57617;51.988;5.854;2023-08-30T12:52:53;9.63;;;3.90;;
70228;SDS011;57617;51.988;5.854;2023-08-30T12:55:19;11.48;;;3.85;;
70228;SDS011;57617;51.988;5.854;2023-08-30T12:57:44;7.85;;;3.65;;
70228;SDS011;57617;51.988;5.854;2023-08-30T13:00:11;9.57;;;3.60;;
70228;SDS011;57617;51.988;5.854;2023-08-30T13:02:37;10.63;;;4.07;;
70228;SDS011;57617;51.988;5.854;2023-08-30T13:05:03;9.93;;;3.78;;
70228;SDS011;57617;51.988;5.854;2023-08-30T13:07:28;9.02;;;3.60;;
70228;SDS011;57617;51.988;5.854;2023-08-30T13:09:53;9.38;;;2.88;;
70228;SDS011;57617;51.988;5.854;2023-08-30T13:12:19;9.93;;;3.33;;
70228;SDS011;57617;51.988;5.854;2023-08-30T13:14:44;9.55;;;3.53;;
70228;SDS011;57617;51.988;5.854;2023-08-30T13:17:09;8.13;;;3.60;;
70228;SDS011;57617;51.988;5.854;2023-08-30T13:19:35;10.02;;;3.78;;
70228;SDS011;57617;51.988;5.854;2023-08-30T13:22:00;7.88;;;3.35;;
70228;SDS011;57617;51.988;5.854;2023-08-30T13:24:25;8.38;;;3.10;;
70228;SDS011;57617;51.988;5.854;2023-08-30T13:26:51;8.73;;;3.00;;
70228;SDS011;57617;51.988;5.854;2023-08-30T13:29:16;9.80;;;3.95;;
70228;SDS011;57617;51.988;5.854;2023-08-30T13:31:42;7.15;;;3.13;;
70228;SDS011;57617;51.988;5.854;2023-08-30T13:34:07;7.75;;;2.83;;
70228;SDS011;57617;51.988;5.854;2023-08-30T13:36:32;7.35;;;3.20;;
70228;SDS011;57617;51.988;5.854;2023-08-30T13:38:58;8.50;;;3.50;;
70228;SDS011;57617;51.988;5.854;2023-08-30T13:41:23;9.63;;;2.95;;
70228;SDS011;57617;51.988;5.854;2023-08-30T13:43:48;10.38;;;3.72;;
70228;SDS011;57617;51.988;5.854;2023-08-30T13:46:13;10.63;;;3.08;;
70228;SDS011;57617;51.988;5.854;2023-08-30T13:48:39;7.65;;;3.10;;
70228;SDS011;57617;51.988;5.854;2023-08-30T13:51:04;7.60;;;2.55;;
70228;SDS011;57617;51.988;5.854;2023-08-30T13:53:29;9.73;;;2.78;;
70228;SDS011;57617;51.988;5.854;2023-08-30T13:55:55;10.93;;;2.70;;
70228;SDS011;57617;51.988;5.854;2023-08-30T13:58:20;7.43;;;2.30;;
70228;SDS011;57617;51.988;5.854;2023-08-30T14:00:45;6.43;;;2.67;;
70228;SDS011;57617;51.988;5.854;2023-08-30T14:03:11;9.27;;;2.22;;
70228;SDS011;57617;51.988;5.854;2023-08-30T14:05:37;10.15;;;2.30;;
70228;SDS011;57617;51.988;5.854;2023-08-30T14:08:05;9.45;;;2.47;;
70228;SDS011;57617;51.988;5.854;2023-08-30T14:10:31;11.10;;;2.90;;
70228;SDS011;57617;51.988;5.854;2023-08-30T14:12:56;10.73;;;2.55;;
70228;SDS011;57617;51.988;5.854;2023-08-30T14:15:22;7.47;;;2.20;;
70228;SDS011;57617;51.988;5.854;2023-08-30T14:17:47;7.63;;;2.42;;
70228;SDS011;57617;51.988;5.854;2023-08-30T14:20:13;5.55;;;1.90;;
70228;SDS011;57617;51.988;5.854;2023-08-30T14:22:38;8.15;;;2.28;;
70228;SDS011;57617;51.988;5.854;2023-08-30T14:25:03;6.03;;;2.13;;
70228;SDS011;57617;51.988;5.854;2023-08-30T14:27:29;8.80;;;2.40;;
70228;SDS011;57617;51.988;5.854;2023-08-30T14:29:55;5.78;;;1.95;;
70228;SDS011;57617;51.988;5.854;2023-08-30T14:32:20;5.68;;;2.10;;
70228;SDS011;57617;51.988;5.854;2023-08-30T14:34:45;6.88;;;2.30;;